AUA22 LSGG-LOWW
Flight info
| Callsign | AUA22 |
|---|---|
| Flight time | 1h 16m |
| Altitude | 34000 |
| Route | SOSAL N871 KORED DCT BERSU DCT DITON N871 DEGES DCT GAMSA/N0424F330 DCT TULSI DCT INPUL DCT NEMAL NEMAL2W |
| Aircraft | MD82/M-SDFGIRWY/S |
Departure
| Time | 2026-05-01 11:07 |
|---|---|
| Airport | Geneva International Airport (LSGG) |
Arrival
| Time | 2026-05-01 12:24 |
|---|---|
| Airport | Vienna International Airport (LOWW) |
| Time | Latitude | Longitude | Altitude | Speed | Heading |
|---|---|---|---|---|---|
| 2026-05-01 10:44 | 46.22984 | 6.10486 | 1393 ft | 0 kts | 135° |
| 2026-05-01 10:59 | 46.22997 | 6.10468 | 1406 ft | 3 kts | 135° |
| 2026-05-01 10:59 | 46.23012 | 6.10450 | 1395 ft | 4 kts | 165° |
| 2026-05-01 11:00 | 46.23028 | 6.10456 | 1404 ft | 4 kts | 224° |
| 2026-05-01 11:00 | 46.23046 | 6.10483 | 1399 ft | 3 kts | 226° |
| 2026-05-01 11:00 | 46.23048 | 6.10486 | 1400 ft | 0 kts | 225° |
| 2026-05-01 11:02 | 46.23045 | 6.10482 | 1399 ft | 1 kts | 225° |
| 2026-05-01 11:03 | 46.23031 | 6.10462 | 1401 ft | 6 kts | 225° |
| 2026-05-01 11:03 | 46.22985 | 6.10393 | 1397 ft | 12 kts | 225° |
| 2026-05-01 11:03 | 46.22954 | 6.10333 | 1399 ft | 5 kts | 258° |
| 2026-05-01 11:03 | 46.22961 | 6.10292 | 1396 ft | 5 kts | 301° |
| 2026-05-01 11:04 | 46.22998 | 6.10239 | 1398 ft | 12 kts | 317° |
| 2026-05-01 11:04 | 46.23051 | 6.10155 | 1404 ft | 4 kts | 287° |
| 2026-05-01 11:04 | 46.23034 | 6.10097 | 1400 ft | 11 kts | 229° |
| 2026-05-01 11:04 | 46.22951 | 6.09974 | 1401 ft | 22 kts | 225° |
| 2026-05-01 11:05 | 46.22822 | 6.09786 | 1396 ft | 30 kts | 225° |
| 2026-05-01 11:05 | 46.22660 | 6.09548 | 1401 ft | 36 kts | 225° |
| 2026-05-01 11:05 | 46.22558 | 6.09355 | 1408 ft | 23 kts | 252° |
| 2026-05-01 11:05 | 46.22560 | 6.09198 | 1416 ft | 9 kts | 304° |
| 2026-05-01 11:06 | 46.22601 | 6.09164 | 1420 ft | 5 kts | 353° |
| 2026-05-01 11:06 | 46.22638 | 6.09187 | 1422 ft | 8 kts | 41° |
| 2026-05-01 11:06 | 46.22752 | 6.09349 | 1419 ft | 49 kts | 45° |
| 2026-05-01 11:07 | 46.23888 | 6.11013 | 1460 ft | 172 kts | 45° |
| 2026-05-01 11:07 | 46.24710 | 6.12249 | 2320 ft | 172 kts | 46° |
| 2026-05-01 11:07 | 46.25572 | 6.13529 | 2973 ft | 185 kts | 46° |
| 2026-05-01 11:07 | 46.26528 | 6.14940 | 3404 ft | 207 kts | 45° |
| 2026-05-01 11:08 | 46.27587 | 6.16507 | 3788 ft | 229 kts | 45° |
| 2026-05-01 11:08 | 46.28754 | 6.18221 | 4212 ft | 249 kts | 45° |
| 2026-05-01 11:08 | 46.31322 | 6.21945 | 5393 ft | 269 kts | 45° |
| 2026-05-01 11:09 | 46.32644 | 6.23878 | 6197 ft | 272 kts | 45° |
| 2026-05-01 11:09 | 46.33976 | 6.25832 | 7015 ft | 274 kts | 45° |
| 2026-05-01 11:09 | 46.35323 | 6.27812 | 7771 ft | 278 kts | 46° |
| 2026-05-01 11:10 | 46.37488 | 6.32440 | 9272 ft | 284 kts | 74° |
| 2026-05-01 11:10 | 46.38025 | 6.35206 | 10037 ft | 288 kts | 76° |
| 2026-05-01 11:10 | 46.38552 | 6.38047 | 10569 ft | 300 kts | 76° |
| 2026-05-01 11:10 | 46.39110 | 6.41081 | 10728 ft | 323 kts | 76° |
| 2026-05-01 11:11 | 46.39699 | 6.44318 | 10966 ft | 341 kts | 76° |
| 2026-05-01 11:11 | 46.40317 | 6.47672 | 11541 ft | 347 kts | 76° |
| 2026-05-01 11:11 | 46.40961 | 6.51052 | 12270 ft | 348 kts | 75° |
| 2026-05-01 11:11 | 46.41625 | 6.54435 | 12978 ft | 350 kts | 75° |
| 2026-05-01 11:12 | 46.42306 | 6.57843 | 13626 ft | 354 kts | 75° |
| 2026-05-01 11:12 | 46.42999 | 6.61282 | 14248 ft | 358 kts | 75° |
| 2026-05-01 11:12 | 46.43703 | 6.64760 | 14845 ft | 361 kts | 75° |
| 2026-05-01 11:12 | 46.44532 | 6.68196 | 15436 ft | 364 kts | 63° |
| 2026-05-01 11:13 | 46.45965 | 6.71251 | 16027 ft | 369 kts | 53° |
| 2026-05-01 11:13 | 46.47598 | 6.74135 | 16630 ft | 372 kts | 51° |
| 2026-05-01 11:13 | 46.49252 | 6.76986 | 17242 ft | 374 kts | 51° |
| 2026-05-01 11:13 | 46.50941 | 6.79883 | 17821 ft | 378 kts | 51° |
| 2026-05-01 11:14 | 46.52644 | 6.82809 | 18404 ft | 381 kts | 51° |
| 2026-05-01 11:14 | 46.54348 | 6.85775 | 18950 ft | 384 kts | 52° |
| 2026-05-01 11:14 | 46.56047 | 6.88790 | 19548 ft | 385 kts | 52° |
| 2026-05-01 11:14 | 46.57735 | 6.91821 | 20131 ft | 387 kts | 52° |
| 2026-05-01 11:15 | 46.59429 | 6.94880 | 20668 ft | 390 kts | 52° |
| 2026-05-01 11:15 | 46.61134 | 6.97967 | 21199 ft | 393 kts | 52° |
| 2026-05-01 11:15 | 46.62855 | 7.01085 | 21749 ft | 396 kts | 52° |
| 2026-05-01 11:15 | 46.64001 | 7.03160 | 22119 ft | 397 kts | 52° |
| 2026-05-01 11:16 | 46.65740 | 7.06308 | 22657 ft | 401 kts | 52° |
| 2026-05-01 11:16 | 46.67498 | 7.09486 | 23192 ft | 403 kts | 52° |
| 2026-05-01 11:16 | 46.69844 | 7.13728 | 23869 ft | 407 kts | 51° |
| 2026-05-01 11:16 | 46.71052 | 7.15911 | 24167 ft | 409 kts | 51° |
| 2026-05-01 11:17 | 46.72843 | 7.19154 | 24584 ft | 412 kts | 52° |
| 2026-05-01 11:17 | 46.74646 | 7.22419 | 25012 ft | 415 kts | 52° |
| 2026-05-01 11:17 | 46.76434 | 7.25657 | 25453 ft | 416 kts | 51° |
| 2026-05-01 11:17 | 46.78254 | 7.28958 | 25871 ft | 418 kts | 52° |
| 2026-05-01 11:18 | 46.80075 | 7.32285 | 26293 ft | 421 kts | 52° |
| 2026-05-01 11:18 | 46.81910 | 7.35651 | 26710 ft | 424 kts | 51° |
| 2026-05-01 11:18 | 46.83748 | 7.39036 | 27198 ft | 425 kts | 51° |
| 2026-05-01 11:18 | 46.85595 | 7.42423 | 27610 ft | 428 kts | 51° |
| 2026-05-01 11:19 | 46.87458 | 7.45838 | 28014 ft | 430 kts | 51° |
| 2026-05-01 11:19 | 46.89329 | 7.49273 | 28423 ft | 433 kts | 51° |
| 2026-05-01 11:19 | 46.91209 | 7.52731 | 28848 ft | 436 kts | 51° |
| 2026-05-01 11:19 | 46.93103 | 7.56221 | 29238 ft | 439 kts | 51° |
| 2026-05-01 11:20 | 46.95000 | 7.59724 | 29728 ft | 439 kts | 51° |
| 2026-05-01 11:20 | 46.96890 | 7.63214 | 30373 ft | 436 kts | 51° |
| 2026-05-01 11:20 | 46.98744 | 7.66638 | 30908 ft | 433 kts | 51° |
| 2026-05-01 11:20 | 47.00611 | 7.70089 | 31369 ft | 432 kts | 51° |
| 2026-05-01 11:21 | 47.02477 | 7.73543 | 31816 ft | 431 kts | 51° |
| 2026-05-01 11:21 | 47.04336 | 7.76982 | 32238 ft | 430 kts | 51° |
| 2026-05-01 11:21 | 47.06189 | 7.80418 | 32696 ft | 429 kts | 51° |
| 2026-05-01 11:21 | 47.08044 | 7.83856 | 33110 ft | 428 kts | 51° |
| 2026-05-01 11:22 | 47.09886 | 7.87273 | 33589 ft | 426 kts | 51° |
| 2026-05-01 11:22 | 47.11726 | 7.90690 | 33992 ft | 425 kts | 51° |
| 2026-05-01 11:22 | 47.13555 | 7.94115 | 34172 ft | 427 kts | 53° |
| 2026-05-01 11:22 | 47.15248 | 7.97733 | 34249 ft | 430 kts | 57° |
| 2026-05-01 11:23 | 47.18372 | 8.05254 | 34293 ft | 430 kts | 59° |
| 2026-05-01 11:23 | 47.21439 | 8.12706 | 34313 ft | 428 kts | 58° |
| 2026-05-01 11:24 | 47.24597 | 8.20190 | 34312 ft | 430 kts | 58° |
| 2026-05-01 11:25 | 47.29352 | 8.31359 | 34332 ft | 429 kts | 59° |
| 2026-05-01 11:25 | 47.31191 | 8.39623 | 34325 ft | 425 kts | 78° |
| 2026-05-01 11:25 | 47.31705 | 8.43904 | 34339 ft | 424 kts | 79° |
| 2026-05-01 11:26 | 47.33195 | 8.56761 | 34319 ft | 425 kts | 78° |
| 2026-05-01 11:27 | 47.34260 | 8.65302 | 34320 ft | 426 kts | 78° |
| 2026-05-01 11:27 | 47.35376 | 8.73900 | 34319 ft | 427 kts | 78° |
| 2026-05-01 11:28 | 47.36486 | 8.82484 | 34322 ft | 423 kts | 77° |
| 2026-05-01 11:28 | 47.37588 | 8.90980 | 34323 ft | 421 kts | 77° |
| 2026-05-01 11:29 | 47.39180 | 9.03709 | 34321 ft | 423 kts | 78° |
| 2026-05-01 11:30 | 47.40769 | 9.16560 | 34327 ft | 425 kts | 78° |
| 2026-05-01 11:30 | 47.41338 | 9.25194 | 34329 ft | 423 kts | 88° |
| 2026-05-01 11:31 | 47.41173 | 9.33880 | 34102 ft | 424 kts | 89° |
| 2026-05-01 11:31 | 47.41080 | 9.38227 | 33917 ft | 423 kts | 89° |
| 2026-05-01 11:31 | 47.41001 | 9.42551 | 33722 ft | 420 kts | 89° |
| 2026-05-01 11:31 | 47.40944 | 9.46803 | 33536 ft | 418 kts | 88° |
| 2026-05-01 11:32 | 47.40904 | 9.51079 | 33410 ft | 415 kts | 88° |
| 2026-05-01 11:32 | 47.40843 | 9.59580 | 33338 ft | 414 kts | 88° |
| 2026-05-01 11:33 | 47.41090 | 9.68132 | 33334 ft | 420 kts | 77° |
| 2026-05-01 11:33 | 47.42369 | 9.76601 | 33319 ft | 423 kts | 74° |
| 2026-05-01 11:34 | 47.43699 | 9.84973 | 33316 ft | 422 kts | 75° |
| 2026-05-01 11:34 | 47.44963 | 9.93407 | 33310 ft | 420 kts | 75° |
| 2026-05-01 11:35 | 47.46175 | 10.01818 | 33309 ft | 421 kts | 76° |
| 2026-05-01 11:35 | 47.47375 | 10.10296 | 33307 ft | 419 kts | 75° |
| 2026-05-01 11:36 | 47.48582 | 10.18708 | 33304 ft | 416 kts | 75° |
| 2026-05-01 11:36 | 47.49792 | 10.27088 | 33301 ft | 418 kts | 75° |
| 2026-05-01 11:37 | 47.50968 | 10.35501 | 33295 ft | 418 kts | 76° |
| 2026-05-01 11:37 | 47.52117 | 10.43887 | 33304 ft | 418 kts | 76° |
| 2026-05-01 11:38 | 47.53277 | 10.52337 | 33313 ft | 419 kts | 76° |
| 2026-05-01 11:38 | 47.54432 | 10.60675 | 33304 ft | 418 kts | 75° |
| 2026-05-01 11:39 | 47.55589 | 10.68988 | 33299 ft | 417 kts | 75° |
| 2026-05-01 11:39 | 47.56757 | 10.77395 | 33304 ft | 416 kts | 75° |
| 2026-05-01 11:40 | 47.57919 | 10.85792 | 33307 ft | 416 kts | 75° |
| 2026-05-01 11:40 | 47.59055 | 10.94207 | 33335 ft | 417 kts | 76° |
| 2026-05-01 11:41 | 47.60157 | 11.02608 | 33323 ft | 413 kts | 76° |
| 2026-05-01 11:41 | 47.61251 | 11.10895 | 33312 ft | 412 kts | 76° |
| 2026-05-01 11:42 | 47.62367 | 11.19245 | 33330 ft | 413 kts | 76° |
| 2026-05-01 11:42 | 47.63484 | 11.27612 | 33320 ft | 414 kts | 76° |
| 2026-05-01 11:43 | 47.64600 | 11.35992 | 33327 ft | 415 kts | 76° |
| 2026-05-01 11:43 | 47.65712 | 11.44374 | 33343 ft | 413 kts | 76° |
| 2026-05-01 11:44 | 47.67248 | 11.56844 | 33338 ft | 410 kts | 77° |
| 2026-05-01 11:44 | 47.68298 | 11.65172 | 33337 ft | 410 kts | 76° |
| 2026-05-01 11:45 | 47.69412 | 11.73427 | 33339 ft | 410 kts | 75° |
| 2026-05-01 11:45 | 47.70561 | 11.81738 | 33345 ft | 411 kts | 75° |
| 2026-05-01 11:46 | 47.71750 | 11.90028 | 33344 ft | 409 kts | 74° |
| 2026-05-01 11:46 | 47.72970 | 11.98258 | 33346 ft | 406 kts | 74° |
| 2026-05-01 11:47 | 47.74190 | 12.06462 | 33344 ft | 407 kts | 74° |
| 2026-05-01 11:47 | 47.75413 | 12.14694 | 33350 ft | 408 kts | 74° |
| 2026-05-01 11:48 | 47.76626 | 12.22873 | 33348 ft | 408 kts | 75° |
| 2026-05-01 11:48 | 47.77840 | 12.31133 | 33353 ft | 409 kts | 75° |
| 2026-05-01 11:49 | 47.79059 | 12.39407 | 33348 ft | 409 kts | 75° |
| 2026-05-01 11:49 | 47.80228 | 12.47685 | 33353 ft | 409 kts | 75° |
| 2026-05-01 11:50 | 47.81374 | 12.55914 | 33350 ft | 408 kts | 75° |
| 2026-05-01 11:50 | 47.82563 | 12.64196 | 33355 ft | 408 kts | 75° |
| 2026-05-01 11:51 | 47.83768 | 12.72476 | 33354 ft | 409 kts | 75° |
| 2026-05-01 11:51 | 47.84785 | 12.80832 | 33361 ft | 410 kts | 78° |
| 2026-05-01 11:52 | 47.85598 | 12.89219 | 33359 ft | 408 kts | 78° |
| 2026-05-01 11:52 | 47.86418 | 12.97564 | 33363 ft | 408 kts | 78° |
| 2026-05-01 11:53 | 47.87272 | 13.05870 | 33364 ft | 409 kts | 78° |
| 2026-05-01 11:53 | 47.88148 | 13.14248 | 33365 ft | 409 kts | 78° |
| 2026-05-01 11:54 | 47.89025 | 13.22636 | 33391 ft | 410 kts | 78° |
| 2026-05-01 11:54 | 47.89894 | 13.31030 | 33377 ft | 409 kts | 77° |
| 2026-05-01 11:55 | 47.90750 | 13.39341 | 33376 ft | 406 kts | 78° |
| 2026-05-01 11:55 | 47.91585 | 13.47680 | 33213 ft | 409 kts | 78° |
| 2026-05-01 11:56 | 47.91882 | 13.51951 | 32741 ft | 415 kts | 84° |
| 2026-05-01 11:56 | 47.91900 | 13.56238 | 32481 ft | 412 kts | 86° |
| 2026-05-01 11:56 | 47.91833 | 13.60503 | 32327 ft | 410 kts | 87° |
| 2026-05-01 11:56 | 47.91758 | 13.64743 | 32232 ft | 410 kts | 87° |
| 2026-05-01 11:57 | 47.91656 | 13.71806 | 32138 ft | 410 kts | 86° |
| 2026-05-01 11:57 | 47.91610 | 13.77500 | 32034 ft | 410 kts | 86° |
| 2026-05-01 11:57 | 47.91592 | 13.81763 | 31956 ft | 411 kts | 86° |
| 2026-05-01 11:58 | 47.91544 | 13.90250 | 31811 ft | 413 kts | 86° |
| 2026-05-01 11:58 | 47.91486 | 13.98819 | 31659 ft | 414 kts | 86° |
| 2026-05-01 11:59 | 47.91460 | 14.03115 | 31606 ft | 415 kts | 86° |
| 2026-05-01 11:59 | 47.91376 | 14.11725 | 31471 ft | 414 kts | 86° |
| 2026-05-01 12:00 | 47.91292 | 14.20263 | 31325 ft | 410 kts | 86° |
| 2026-05-01 12:00 | 47.91258 | 14.24514 | 31246 ft | 410 kts | 86° |
| 2026-05-01 12:00 | 47.91194 | 14.33036 | 31103 ft | 413 kts | 86° |
| 2026-05-01 12:01 | 47.91165 | 14.37326 | 31034 ft | 414 kts | 86° |
| 2026-05-01 12:01 | 47.91083 | 14.45874 | 30874 ft | 416 kts | 86° |
| 2026-05-01 12:01 | 47.91030 | 14.50232 | 30305 ft | 425 kts | 86° |
| 2026-05-01 12:02 | 47.90969 | 14.54605 | 29580 ft | 418 kts | 86° |
| 2026-05-01 12:02 | 47.90902 | 14.58916 | 28856 ft | 411 kts | 86° |
| 2026-05-01 12:02 | 47.90857 | 14.61720 | 28400 ft | 405 kts | 86° |
| 2026-05-01 12:02 | 47.90798 | 14.65873 | 27756 ft | 397 kts | 86° |
| 2026-05-01 12:03 | 47.90729 | 14.71257 | 26934 ft | 387 kts | 86° |
| 2026-05-01 12:03 | 47.90678 | 14.75241 | 26319 ft | 380 kts | 86° |
| 2026-05-01 12:03 | 47.90635 | 14.79143 | 25699 ft | 374 kts | 86° |
| 2026-05-01 12:03 | 47.90595 | 14.81755 | 25341 ft | 370 kts | 87° |
| 2026-05-01 12:04 | 47.90533 | 14.85532 | 24795 ft | 365 kts | 86° |
| 2026-05-01 12:04 | 47.90478 | 14.89249 | 24254 ft | 360 kts | 87° |
| 2026-05-01 12:04 | 47.90418 | 14.92951 | 23646 ft | 355 kts | 87° |
| 2026-05-01 12:04 | 47.90356 | 14.96598 | 23074 ft | 349 kts | 87° |
| 2026-05-01 12:05 | 47.90291 | 15.00183 | 22528 ft | 343 kts | 87° |
| 2026-05-01 12:05 | 47.90167 | 15.07221 | 21476 ft | 345 kts | 87° |
| 2026-05-01 12:05 | 47.90111 | 15.10862 | 20944 ft | 354 kts | 87° |
| 2026-05-01 12:06 | 47.90057 | 15.14523 | 20456 ft | 354 kts | 87° |
| 2026-05-01 12:06 | 47.89986 | 15.18195 | 19937 ft | 352 kts | 88° |
| 2026-05-01 12:06 | 47.89919 | 15.21826 | 19422 ft | 348 kts | 88° |
| 2026-05-01 12:06 | 47.89860 | 15.25439 | 18870 ft | 346 kts | 88° |
| 2026-05-01 12:07 | 47.89800 | 15.29006 | 18289 ft | 343 kts | 88° |
| 2026-05-01 12:07 | 47.89740 | 15.32510 | 17767 ft | 342 kts | 88° |
| 2026-05-01 12:07 | 47.89679 | 15.36043 | 17257 ft | 340 kts | 88° |
| 2026-05-01 12:07 | 47.89608 | 15.39523 | 17120 ft | 333 kts | 88° |
| 2026-05-01 12:08 | 47.89534 | 15.42984 | 17058 ft | 332 kts | 88° |
| 2026-05-01 12:08 | 47.89463 | 15.46442 | 16981 ft | 338 kts | 87° |
| 2026-05-01 12:08 | 47.89237 | 15.49949 | 16910 ft | 341 kts | 97° |
| 2026-05-01 12:08 | 47.88688 | 15.53402 | 16826 ft | 343 kts | 100° |
| 2026-05-01 12:09 | 47.88067 | 15.56834 | 16743 ft | 344 kts | 100° |
| 2026-05-01 12:09 | 47.87438 | 15.60293 | 16677 ft | 345 kts | 100° |
| 2026-05-01 12:09 | 47.86819 | 15.63730 | 16602 ft | 342 kts | 100° |
| 2026-05-01 12:09 | 47.86211 | 15.67156 | 16518 ft | 342 kts | 99° |
| 2026-05-01 12:10 | 47.85615 | 15.70586 | 16438 ft | 343 kts | 99° |
| 2026-05-01 12:10 | 47.84447 | 15.77461 | 16244 ft | 343 kts | 99° |
| 2026-05-01 12:10 | 47.83868 | 15.80904 | 15946 ft | 342 kts | 99° |
| 2026-05-01 12:11 | 47.82715 | 15.87759 | 14954 ft | 337 kts | 99° |
| 2026-05-01 12:11 | 47.82153 | 15.91128 | 14400 ft | 334 kts | 99° |
| 2026-05-01 12:11 | 47.81600 | 15.94439 | 13798 ft | 331 kts | 99° |
| 2026-05-01 12:12 | 47.81049 | 15.97740 | 13189 ft | 327 kts | 99° |
| 2026-05-01 12:12 | 47.80502 | 16.01008 | 12575 ft | 325 kts | 99° |
| 2026-05-01 12:12 | 47.79958 | 16.04247 | 11970 ft | 321 kts | 99° |
| 2026-05-01 12:12 | 47.79415 | 16.07435 | 11419 ft | 315 kts | 100° |
| 2026-05-01 12:13 | 47.78882 | 16.10567 | 11006 ft | 307 kts | 100° |
| 2026-05-01 12:13 | 47.78367 | 16.13568 | 10834 ft | 291 kts | 100° |
| 2026-05-01 12:13 | 47.77874 | 16.16413 | 10660 ft | 277 kts | 100° |
| 2026-05-01 12:13 | 47.77401 | 16.19126 | 10488 ft | 265 kts | 100° |
| 2026-05-01 12:14 | 47.76951 | 16.21751 | 10089 ft | 262 kts | 97° |
| 2026-05-01 12:14 | 47.76984 | 16.24395 | 9580 ft | 255 kts | 69° |
| 2026-05-01 12:14 | 47.77765 | 16.26737 | 9100 ft | 253 kts | 58° |
| 2026-05-01 12:14 | 47.78669 | 16.28994 | 8540 ft | 255 kts | 58° |
| 2026-05-01 12:15 | 47.79576 | 16.31268 | 8050 ft | 256 kts | 58° |
| 2026-05-01 12:15 | 47.80479 | 16.33524 | 7630 ft | 250 kts | 58° |
| 2026-05-01 12:15 | 47.81337 | 16.35673 | 7278 ft | 242 kts | 58° |
| 2026-05-01 12:15 | 47.82182 | 16.37820 | 6952 ft | 239 kts | 58° |
| 2026-05-01 12:16 | 47.83005 | 16.39949 | 6628 ft | 236 kts | 59° |
| 2026-05-01 12:16 | 47.83810 | 16.42055 | 6320 ft | 233 kts | 59° |
| 2026-05-01 12:16 | 47.84603 | 16.44141 | 6017 ft | 230 kts | 59° |
| 2026-05-01 12:16 | 47.85382 | 16.46211 | 5719 ft | 227 kts | 59° |
| 2026-05-01 12:17 | 47.86145 | 16.48234 | 5437 ft | 220 kts | 59° |
| 2026-05-01 12:17 | 47.86883 | 16.50202 | 5142 ft | 216 kts | 59° |
| 2026-05-01 12:17 | 47.87607 | 16.52147 | 4864 ft | 212 kts | 59° |
| 2026-05-01 12:17 | 47.88317 | 16.54058 | 4578 ft | 210 kts | 58° |
| 2026-05-01 12:18 | 47.89031 | 16.55956 | 4301 ft | 208 kts | 58° |
| 2026-05-01 12:18 | 47.89724 | 16.57785 | 4224 ft | 199 kts | 58° |
| 2026-05-01 12:18 | 47.90387 | 16.59541 | 4138 ft | 191 kts | 57° |
| 2026-05-01 12:18 | 47.91025 | 16.61231 | 4050 ft | 183 kts | 58° |
| 2026-05-01 12:19 | 47.91646 | 16.62868 | 4022 ft | 177 kts | 57° |
| 2026-05-01 12:19 | 47.92278 | 16.64453 | 3918 ft | 178 kts | 49° |
| 2026-05-01 12:19 | 47.93276 | 16.65367 | 3790 ft | 173 kts | 1° |
| 2026-05-01 12:19 | 47.94425 | 16.64920 | 3630 ft | 173 kts | 343° |
| 2026-05-01 12:20 | 47.95599 | 16.64507 | 3433 ft | 171 kts | 351° |
| 2026-05-01 12:20 | 47.96785 | 16.64187 | 3139 ft | 173 kts | 346° |
| 2026-05-01 12:20 | 47.97937 | 16.63716 | 2829 ft | 169 kts | 346° |
| 2026-05-01 12:20 | 47.99048 | 16.63271 | 2618 ft | 162 kts | 346° |
| 2026-05-01 12:21 | 48.00120 | 16.62837 | 2369 ft | 158 kts | 346° |
| 2026-05-01 12:21 | 48.01161 | 16.62401 | 2207 ft | 149 kts | 345° |
| 2026-05-01 12:21 | 48.02137 | 16.61989 | 2026 ft | 142 kts | 345° |
| 2026-05-01 12:21 | 48.03070 | 16.61578 | 1822 ft | 137 kts | 345° |
| 2026-05-01 12:22 | 48.03969 | 16.61202 | 1631 ft | 136 kts | 346° |
| 2026-05-01 12:22 | 48.04867 | 16.60816 | 1453 ft | 134 kts | 345° |
| 2026-05-01 12:22 | 48.05786 | 16.60451 | 1274 ft | 136 kts | 345° |
| 2026-05-01 12:22 | 48.06690 | 16.60057 | 1073 ft | 140 kts | 343° |
| 2026-05-01 12:23 | 48.07626 | 16.59651 | 937 ft | 138 kts | 343° |
| 2026-05-01 12:23 | 48.08550 | 16.59256 | 727 ft | 138 kts | 345° |
| 2026-05-01 12:23 | 48.09453 | 16.58879 | 623 ft | 129 kts | 345° |
| 2026-05-01 12:23 | 48.10121 | 16.58602 | 617 ft | 58 kts | 344° |
| 2026-05-01 12:24 | 48.10341 | 16.58490 | 616 ft | 25 kts | 326° |
| 2026-05-01 12:24 | 48.10438 | 16.58315 | 621 ft | 21 kts | 301° |
| 2026-05-01 12:24 | 48.10506 | 16.58171 | 623 ft | 11 kts | 328° |
| 2026-05-01 12:24 | 48.10610 | 16.58116 | 615 ft | 21 kts | 345° |
| 2026-05-01 12:25 | 48.10767 | 16.58050 | 622 ft | 20 kts | 344° |
| 2026-05-01 12:25 | 48.11040 | 16.57936 | 620 ft | 21 kts | 344° |
| 2026-05-01 12:25 | 48.11184 | 16.57874 | 623 ft | 22 kts | 344° |
| 2026-05-01 12:26 | 48.11334 | 16.57811 | 619 ft | 23 kts | 344° |
| 2026-05-01 12:26 | 48.11586 | 16.57704 | 619 ft | 18 kts | 344° |
| 2026-05-01 12:26 | 48.11708 | 16.57653 | 619 ft | 19 kts | 344° |
| 2026-05-01 12:27 | 48.11813 | 16.57605 | 613 ft | 7 kts | 332° |
| 2026-05-01 12:27 | 48.11812 | 16.57363 | 617 ft | 13 kts | 281° |
| 2026-05-01 12:28 | 48.11871 | 16.57094 | 621 ft | 14 kts | 295° |
| 2026-05-01 12:28 | 48.11913 | 16.56961 | 616 ft | 8 kts | 295° |
| 2026-05-01 12:28 | 48.11894 | 16.56902 | 614 ft | 0 kts | 205° |
| 2026-05-01 12:29 | 48.11883 | 16.56893 | 618 ft | 1 kts | 207° |
| 2026-05-01 12:29 | 48.11879 | 16.56889 | 618 ft | 0 kts | 207° |
| 2026-05-01 12:29 | 48.11877 | 16.56888 | 618 ft | 0 kts | 207° |
| 2026-05-01 12:30 | 48.11875 | 16.56887 | 612 ft | 0 kts | 207° |